sensor_id;sensor_type;location;lat;lon;timestamp;P1;durP1;ratioP1;P2;durP2;ratioP2
44822;SDS011;51097;51.984;5.650;2022-09-09T00:01:41;6.03;;;4.65;;
44822;SDS011;51097;51.984;5.650;2022-09-09T00:04:42;6.00;;;5.43;;
44822;SDS011;51097;51.984;5.650;2022-09-09T00:07:17;5.90;;;4.30;;
44822;SDS011;51097;51.984;5.650;2022-09-09T00:12:48;6.63;;;5.47;;
44822;SDS011;51097;51.984;5.650;2022-09-09T00:21:34;7.40;;;6.60;;
44822;SDS011;51097;51.984;5.650;2022-09-09T00:26:17;9.68;;;6.38;;
44822;SDS011;51097;51.984;5.650;2022-09-09T00:31:28;8.05;;;5.65;;
44822;SDS011;51097;51.984;5.650;2022-09-09T00:34:02;6.25;;;5.03;;
44822;SDS011;51097;51.984;5.650;2022-09-09T00:36:34;7.25;;;5.20;;
44822;SDS011;51097;51.984;5.650;2022-09-09T00:39:02;8.88;;;4.95;;
44822;SDS011;51097;51.984;5.650;2022-09-09T00:44:30;7.68;;;4.90;;
44822;SDS011;51097;51.984;5.650;2022-09-09T01:01:07;7.80;;;5.40;;
44822;SDS011;51097;51.984;5.650;2022-09-09T01:03:55;6.55;;;4.63;;
44822;SDS011;51097;51.984;5.650;2022-09-09T01:06:33;5.75;;;4.63;;
44822;SDS011;51097;51.984;5.650;2022-09-09T01:09:16;5.13;;;4.63;;
44822;SDS011;51097;51.984;5.650;2022-09-09T01:15:10;5.50;;;4.80;;
44822;SDS011;51097;51.984;5.650;2022-09-09T01:20:30;7.53;;;5.55;;
44822;SDS011;51097;51.984;5.650;2022-09-09T01:26:41;6.25;;;5.15;;
44822;SDS011;51097;51.984;5.650;2022-09-09T01:29:17;7.20;;;5.88;;
44822;SDS011;51097;51.984;5.650;2022-09-09T01:31:59;6.10;;;5.50;;
44822;SDS011;51097;51.984;5.650;2022-09-09T01:37:05;6.63;;;4.63;;
44822;SDS011;51097;51.984;5.650;2022-09-09T01:39:36;6.07;;;4.35;;
44822;SDS011;51097;51.984;5.650;2022-09-09T01:42:04;5.60;;;4.95;;
44822;SDS011;51097;51.984;5.650;2022-09-09T01:44:32;4.88;;;4.38;;
44822;SDS011;51097;51.984;5.650;2022-09-09T01:47:00;6.93;;;4.68;;
44822;SDS011;51097;51.984;5.650;2022-09-09T01:49:27;9.88;;;5.22;;
44822;SDS011;51097;51.984;5.650;2022-09-09T01:51:53;6.65;;;5.97;;
44822;SDS011;51097;51.984;5.650;2022-09-09T01:54:20;6.05;;;4.97;;
44822;SDS011;51097;51.984;5.650;2022-09-09T02:02:45;6.93;;;6.05;;
44822;SDS011;51097;51.984;5.650;2022-09-09T02:05:36;11.32;;;7.18;;
44822;SDS011;51097;51.984;5.650;2022-09-09T02:08:23;8.43;;;7.43;;
44822;SDS011;51097;51.984;5.650;2022-09-09T02:11:07;8.18;;;7.38;;
44822;SDS011;51097;51.984;5.650;2022-09-09T02:13:45;6.70;;;5.97;;
44822;SDS011;51097;51.984;5.650;2022-09-09T02:16:15;7.13;;;5.82;;
44822;SDS011;51097;51.984;5.650;2022-09-09T02:18:49;5.82;;;4.78;;
44822;SDS011;51097;51.984;5.650;2022-09-09T02:21:18;8.00;;;5.03;;
44822;SDS011;51097;51.984;5.650;2022-09-09T02:23:44;5.60;;;4.22;;
44822;SDS011;51097;51.984;5.650;2022-09-09T02:26:13;5.68;;;4.57;;
44822;SDS011;51097;51.984;5.650;2022-09-09T02:28:45;5.25;;;4.75;;
44822;SDS011;51097;51.984;5.650;2022-09-09T02:31:11;10.38;;;5.15;;
44822;SDS011;51097;51.984;5.650;2022-09-09T02:33:40;5.70;;;4.47;;
44822;SDS011;51097;51.984;5.650;2022-09-09T02:36:09;7.72;;;5.35;;
44822;SDS011;51097;51.984;5.650;2022-09-09T02:38:40;9.27;;;4.57;;
44822;SDS011;51097;51.984;5.650;2022-09-09T02:41:10;5.80;;;4.32;;
44822;SDS011;51097;51.984;5.650;2022-09-09T02:43:37;9.05;;;5.00;;
44822;SDS011;51097;51.984;5.650;2022-09-09T02:46:07;6.28;;;5.07;;
44822;SDS011;51097;51.984;5.650;2022-09-09T02:56:52;6.38;;;4.72;;
44822;SDS011;51097;51.984;5.650;2022-09-09T03:01:45;5.38;;;4.88;;
44822;SDS011;51097;51.984;5.650;2022-09-09T03:04:12;7.35;;;5.18;;
44822;SDS011;51097;51.984;5.650;2022-09-09T03:06:37;8.48;;;6.00;;
44822;SDS011;51097;51.984;5.650;2022-09-09T03:09:03;9.45;;;5.55;;
44822;SDS011;51097;51.984;5.650;2022-09-09T03:11:29;5.97;;;5.35;;
44822;SDS011;51097;51.984;5.650;2022-09-09T03:13:54;5.28;;;4.60;;
44822;SDS011;51097;51.984;5.650;2022-09-09T03:16:21;6.55;;;4.80;;
44822;SDS011;51097;51.984;5.650;2022-09-09T03:18:47;5.85;;;5.00;;
44822;SDS011;51097;51.984;5.650;2022-09-09T03:21:13;12.40;;;6.38;;
44822;SDS011;51097;51.984;5.650;2022-09-09T03:23:39;5.85;;;5.18;;
44822;SDS011;51097;51.984;5.650;2022-09-09T03:26:04;9.27;;;5.85;;
44822;SDS011;51097;51.984;5.650;2022-09-09T03:28:30;9.57;;;6.20;;
44822;SDS011;51097;51.984;5.650;2022-09-09T03:30:59;7.03;;;5.75;;
44822;SDS011;51097;51.984;5.650;2022-09-09T03:33:26;7.10;;;5.88;;
44822;SDS011;51097;51.984;5.650;2022-09-09T03:35:52;7.78;;;5.85;;
44822;SDS011;51097;51.984;5.650;2022-09-09T03:38:18;8.18;;;5.88;;
44822;SDS011;51097;51.984;5.650;2022-09-09T03:40:53;9.23;;;6.20;;
44822;SDS011;51097;51.984;5.650;2022-09-09T03:43:21;9.15;;;5.38;;
44822;SDS011;51097;51.984;5.650;2022-09-09T03:45:47;6.90;;;5.22;;
44822;SDS011;51097;51.984;5.650;2022-09-09T03:48:13;7.57;;;6.80;;
44822;SDS011;51097;51.984;5.650;2022-09-09T03:50:43;9.07;;;5.82;;
44822;SDS011;51097;51.984;5.650;2022-09-09T03:53:13;7.10;;;5.35;;
44822;SDS011;51097;51.984;5.650;2022-09-09T03:55:43;7.20;;;6.35;;
44822;SDS011;51097;51.984;5.650;2022-09-09T03:58:10;9.23;;;6.22;;
44822;SDS011;51097;51.984;5.650;2022-09-09T04:00:36;10.45;;;7.28;;
44822;SDS011;51097;51.984;5.650;2022-09-09T04:03:08;8.32;;;6.05;;
44822;SDS011;51097;51.984;5.650;2022-09-09T04:05:34;7.45;;;6.10;;
44822;SDS011;51097;51.984;5.650;2022-09-09T04:08:04;8.63;;;5.70;;
44822;SDS011;51097;51.984;5.650;2022-09-09T04:10:30;10.60;;;6.07;;
44822;SDS011;51097;51.984;5.650;2022-09-09T04:12:56;10.73;;;5.78;;
44822;SDS011;51097;51.984;5.650;2022-09-09T04:15:22;8.50;;;5.72;;
44822;SDS011;51097;51.984;5.650;2022-09-09T04:17:47;12.25;;;6.47;;
44822;SDS011;51097;51.984;5.650;2022-09-09T04:20:13;7.75;;;6.15;;
44822;SDS011;51097;51.984;5.650;2022-09-09T04:22:38;6.03;;;5.43;;
44822;SDS011;51097;51.984;5.650;2022-09-09T04:25:05;7.88;;;5.90;;
44822;SDS011;51097;51.984;5.650;2022-09-09T04:27:31;12.00;;;7.35;;
44822;SDS011;51097;51.984;5.650;2022-09-09T04:29:57;8.52;;;6.78;;
44822;SDS011;51097;51.984;5.650;2022-09-09T04:32:23;11.23;;;6.63;;
44822;SDS011;51097;51.984;5.650;2022-09-09T04:34:51;11.45;;;6.03;;
44822;SDS011;51097;51.984;5.650;2022-09-09T04:37:17;8.23;;;5.18;;
44822;SDS011;51097;51.984;5.650;2022-09-09T04:39:42;7.50;;;5.07;;
44822;SDS011;51097;51.984;5.650;2022-09-09T04:42:08;7.47;;;5.82;;
44822;SDS011;51097;51.984;5.650;2022-09-09T04:44:33;9.93;;;5.63;;
44822;SDS011;51097;51.984;5.650;2022-09-09T04:46:59;9.70;;;5.82;;
44822;SDS011;51097;51.984;5.650;2022-09-09T04:49:24;17.25;;;6.25;;
44822;SDS011;51097;51.984;5.650;2022-09-09T04:51:50;11.27;;;5.43;;
44822;SDS011;51097;51.984;5.650;2022-09-09T04:54:16;8.23;;;6.28;;
44822;SDS011;51097;51.984;5.650;2022-09-09T04:56:42;8.80;;;7.13;;
44822;SDS011;51097;51.984;5.650;2022-09-09T04:59:08;10.93;;;7.20;;
44822;SDS011;51097;51.984;5.650;2022-09-09T05:01:34;12.88;;;6.53;;
44822;SDS011;51097;51.984;5.650;2022-09-09T05:04:01;9.52;;;6.45;;
44822;SDS011;51097;51.984;5.650;2022-09-09T05:06:27;12.65;;;8.32;;
44822;SDS011;51097;51.984;5.650;2022-09-09T05:08:56;11.43;;;8.27;;
44822;SDS011;51097;51.984;5.650;2022-09-09T05:11:23;11.02;;;7.47;;
44822;SDS011;51097;51.984;5.650;2022-09-09T05:13:52;10.30;;;7.82;;
44822;SDS011;51097;51.984;5.650;2022-09-09T05:16:18;12.13;;;8.38;;
44822;SDS011;51097;51.984;5.650;2022-09-09T05:18:45;9.38;;;7.45;;
44822;SDS011;51097;51.984;5.650;2022-09-09T05:21:12;13.65;;;7.38;;
44822;SDS011;51097;51.984;5.650;2022-09-09T05:23:39;9.57;;;6.43;;
44822;SDS011;51097;51.984;5.650;2022-09-09T05:26:05;8.63;;;6.45;;
44822;SDS011;51097;51.984;5.650;2022-09-09T05:28:34;10.05;;;6.93;;
44822;SDS011;51097;51.984;5.650;2022-09-09T05:31:01;9.35;;;6.35;;
44822;SDS011;51097;51.984;5.650;2022-09-09T05:33:33;13.88;;;6.93;;
44822;SDS011;51097;51.984;5.650;2022-09-09T05:36:00;9.32;;;5.85;;
44822;SDS011;51097;51.984;5.650;2022-09-09T05:38:29;14.93;;;6.80;;
44822;SDS011;51097;51.984;5.650;2022-09-09T05:40:55;10.07;;;5.93;;
44822;SDS011;51097;51.984;5.650;2022-09-09T05:43:23;10.10;;;6.07;;
44822;SDS011;51097;51.984;5.650;2022-09-09T05:48:36;12.70;;;6.28;;
44822;SDS011;51097;51.984;5.650;2022-09-09T05:51:03;11.80;;;6.60;;
44822;SDS011;51097;51.984;5.650;2022-09-09T05:53:34;10.43;;;5.55;;
44822;SDS011;51097;51.984;5.650;2022-09-09T05:56:03;8.88;;;6.35;;
44822;SDS011;51097;51.984;5.650;2022-09-09T05:58:31;12.68;;;6.22;;
44822;SDS011;51097;51.984;5.650;2022-09-09T06:01:01;13.52;;;7.53;;
44822;SDS011;51097;51.984;5.650;2022-09-09T06:03:27;13.15;;;7.70;;
44822;SDS011;51097;51.984;5.650;2022-09-09T06:06:06;17.52;;;7.80;;
44822;SDS011;51097;51.984;5.650;2022-09-09T06:08:33;11.85;;;7.30;;
44822;SDS011;51097;51.984;5.650;2022-09-09T06:11:06;11.98;;;7.35;;
44822;SDS011;51097;51.984;5.650;2022-09-09T06:13:34;14.77;;;7.82;;
44822;SDS011;51097;51.984;5.650;2022-09-09T06:16:03;12.87;;;6.57;;
44822;SDS011;51097;51.984;5.650;2022-09-09T06:18:29;12.63;;;5.18;;
44822;SDS011;51097;51.984;5.650;2022-09-09T06:23:21;10.43;;;4.68;;
44822;SDS011;51097;51.984;5.650;2022-09-09T06:25:47;6.38;;;4.45;;
44822;SDS011;51097;51.984;5.650;2022-09-09T06:28:14;7.75;;;4.55;;
44822;SDS011;51097;51.984;5.650;2022-09-09T06:30:40;9.43;;;4.18;;
44822;SDS011;51097;51.984;5.650;2022-09-09T06:33:06;13.00;;;3.67;;
44822;SDS011;51097;51.984;5.650;2022-09-09T06:35:31;11.48;;;4.32;;
44822;SDS011;51097;51.984;5.650;2022-09-09T06:37:57;13.07;;;4.53;;
44822;SDS011;51097;51.984;5.650;2022-09-09T06:40:23;10.63;;;4.50;;
44822;SDS011;51097;51.984;5.650;2022-09-09T06:42:49;9.82;;;4.20;;
44822;SDS011;51097;51.984;5.650;2022-09-09T06:45:15;8.20;;;4.40;;
44822;SDS011;51097;51.984;5.650;2022-09-09T06:47:41;14.10;;;6.47;;
44822;SDS011;51097;51.984;5.650;2022-09-09T06:50:07;15.13;;;4.25;;
44822;SDS011;51097;51.984;5.650;2022-09-09T06:52:33;6.78;;;4.25;;
44822;SDS011;51097;51.984;5.650;2022-09-09T06:54:58;10.80;;;4.65;;
44822;SDS011;51097;51.984;5.650;2022-09-09T06:57:24;17.30;;;4.28;;
44822;SDS011;51097;51.984;5.650;2022-09-09T06:59:49;12.30;;;3.88;;
44822;SDS011;51097;51.984;5.650;2022-09-09T07:02:15;7.07;;;4.13;;
44822;SDS011;51097;51.984;5.650;2022-09-09T07:04:41;10.48;;;3.95;;
44822;SDS011;51097;51.984;5.650;2022-09-09T07:07:06;10.90;;;4.40;;
44822;SDS011;51097;51.984;5.650;2022-09-09T07:09:34;12.75;;;4.45;;
44822;SDS011;51097;51.984;5.650;2022-09-09T07:12:00;15.20;;;4.43;;
44822;SDS011;51097;51.984;5.650;2022-09-09T07:14:26;12.27;;;4.97;;
44822;SDS011;51097;51.984;5.650;2022-09-09T07:16:52;12.90;;;4.50;;
44822;SDS011;51097;51.984;5.650;2022-09-09T07:19:17;10.85;;;4.10;;
44822;SDS011;51097;51.984;5.650;2022-09-09T07:21:43;11.90;;;4.65;;
44822;SDS011;51097;51.984;5.650;2022-09-09T07:24:09;11.13;;;4.78;;
44822;SDS011;51097;51.984;5.650;2022-09-09T07:26:36;11.77;;;4.18;;
44822;SDS011;51097;51.984;5.650;2022-09-09T07:29:03;12.20;;;4.28;;
44822;SDS011;51097;51.984;5.650;2022-09-09T07:31:29;11.85;;;4.13;;
44822;SDS011;51097;51.984;5.650;2022-09-09T07:33:56;9.60;;;4.05;;
44822;SDS011;51097;51.984;5.650;2022-09-09T07:36:27;8.60;;;4.35;;
44822;SDS011;51097;51.984;5.650;2022-09-09T07:39:02;14.18;;;5.10;;
44822;SDS011;51097;51.984;5.650;2022-09-09T07:41:40;11.70;;;4.15;;
44822;SDS011;51097;51.984;5.650;2022-09-09T07:44:08;8.93;;;3.30;;
44822;SDS011;51097;51.984;5.650;2022-09-09T07:46:36;10.68;;;3.78;;
44822;SDS011;51097;51.984;5.650;2022-09-09T07:49:04;6.72;;;3.08;;
44822;SDS011;51097;51.984;5.650;2022-09-09T07:51:33;8.02;;;3.45;;
44822;SDS011;51097;51.984;5.650;2022-09-09T07:54:01;7.80;;;3.80;;
44822;SDS011;51097;51.984;5.650;2022-09-09T07:56:29;10.45;;;3.55;;
44822;SDS011;51097;51.984;5.650;2022-09-09T07:58:56;11.02;;;3.30;;
44822;SDS011;51097;51.984;5.650;2022-09-09T08:03:56;9.18;;;3.72;;
44822;SDS011;51097;51.984;5.650;2022-09-09T08:06:27;14.45;;;4.55;;
44822;SDS011;51097;51.984;5.650;2022-09-09T08:08:54;10.07;;;3.10;;
44822;SDS011;51097;51.984;5.650;2022-09-09T08:11:20;13.15;;;3.38;;
44822;SDS011;51097;51.984;5.650;2022-09-09T08:13:48;6.47;;;3.50;;
44822;SDS011;51097;51.984;5.650;2022-09-09T08:16:28;7.93;;;3.17;;
44822;SDS011;51097;51.984;5.650;2022-09-09T08:18:56;6.75;;;3.17;;
44822;SDS011;51097;51.984;5.650;2022-09-09T08:21:26;10.32;;;2.88;;
44822;SDS011;51097;51.984;5.650;2022-09-09T08:23:53;9.68;;;3.83;;
44822;SDS011;51097;51.984;5.650;2022-09-09T08:26:24;5.00;;;2.40;;
44822;SDS011;51097;51.984;5.650;2022-09-09T08:28:52;14.23;;;2.78;;
44822;SDS011;51097;51.984;5.650;2022-09-09T08:31:20;9.40;;;3.53;;
44822;SDS011;51097;51.984;5.650;2022-09-09T08:33:48;8.75;;;2.88;;
44822;SDS011;51097;51.984;5.650;2022-09-09T08:36:15;10.95;;;3.30;;
44822;SDS011;51097;51.984;5.650;2022-09-09T08:38:47;8.75;;;3.40;;
44822;SDS011;51097;51.984;5.650;2022-09-09T08:53:09;8.60;;;2.60;;
44822;SDS011;51097;51.984;5.650;2022-09-09T08:55:35;8.40;;;2.08;;
44822;SDS011;51097;51.984;5.650;2022-09-09T08:58:11;8.18;;;2.08;;
44822;SDS011;51097;51.984;5.650;2022-09-09T09:03:27;7.95;;;2.28;;
44822;SDS011;51097;51.984;5.650;2022-09-09T09:06:12;11.73;;;2.25;;
44822;SDS011;51097;51.984;5.650;2022-09-09T09:09:01;9.77;;;2.78;;
44822;SDS011;51097;51.984;5.650;2022-09-09T09:11:43;5.80;;;2.20;;
44822;SDS011;51097;51.984;5.650;2022-09-09T09:19:24;6.80;;;1.80;;
44822;SDS011;51097;51.984;5.650;2022-09-09T09:24:18;12.60;;;2.20;;
44822;SDS011;51097;51.984;5.650;2022-09-09T09:26:47;7.38;;;1.88;;
44822;SDS011;51097;51.984;5.650;2022-09-09T09:29:13;7.38;;;2.40;;
44822;SDS011;51097;51.984;5.650;2022-09-09T09:31:42;6.75;;;2.03;;
44822;SDS011;51097;51.984;5.650;2022-09-09T09:34:28;5.68;;;2.25;;
44822;SDS011;51097;51.984;5.650;2022-09-09T09:36:54;6.47;;;2.75;;
44822;SDS011;51097;51.984;5.650;2022-09-09T09:39:26;8.95;;;1.90;;
44822;SDS011;51097;51.984;5.650;2022-09-09T09:42:07;7.05;;;3.05;;
44822;SDS011;51097;51.984;5.650;2022-09-09T09:44:38;5.90;;;1.70;;
44822;SDS011;51097;51.984;5.650;2022-09-09T09:47:21;7.13;;;2.15;;
44822;SDS011;51097;51.984;5.650;2022-09-09T09:49:58;10.70;;;3.92;;
44822;SDS011;51097;51.984;5.650;2022-09-09T09:52:26;7.40;;;2.90;;
44822;SDS011;51097;51.984;5.650;2022-09-09T09:54:57;8.68;;;2.55;;
44822;SDS011;51097;51.984;5.650;2022-09-09T09:57:27;9.50;;;2.72;;
44822;SDS011;51097;51.984;5.650;2022-09-09T10:00:02;9.43;;;2.95;;
44822;SDS011;51097;51.984;5.650;2022-09-09T10:02:43;11.00;;;3.55;;
44822;SDS011;51097;51.984;5.650;2022-09-09T10:07:43;7.40;;;2.17;;
44822;SDS011;51097;51.984;5.650;2022-09-09T10:10:20;8.90;;;2.22;;
44822;SDS011;51097;51.984;5.650;2022-09-09T10:15:34;6.75;;;2.30;;
44822;SDS011;51097;51.984;5.650;2022-09-09T10:40:43;10.45;;;2.60;;
44822;SDS011;51097;51.984;5.650;2022-09-09T10:51:40;9.82;;;3.28;;
44822;SDS011;51097;51.984;5.650;2022-09-09T10:57:00;7.20;;;3.25;;
44822;SDS011;51097;51.984;5.650;2022-09-09T10:59:40;9.20;;;3.25;;
44822;SDS011;51097;51.984;5.650;2022-09-09T11:02:29;10.00;;;3.72;;
44822;SDS011;51097;51.984;5.650;2022-09-09T11:05:01;9.45;;;3.13;;
44822;SDS011;51097;51.984;5.650;2022-09-09T11:10:21;15.27;;;4.75;;
44822;SDS011;51097;51.984;5.650;2022-09-09T11:13:14;5.40;;;3.65;;
44822;SDS011;51097;51.984;5.650;2022-09-09T11:15:46;9.38;;;3.50;;
44822;SDS011;51097;51.984;5.650;2022-09-09T11:18:19;9.60;;;3.75;;
44822;SDS011;51097;51.984;5.650;2022-09-09T11:20:48;14.57;;;5.18;;
44822;SDS011;51097;51.984;5.650;2022-09-09T11:23:17;14.20;;;4.90;;
44822;SDS011;51097;51.984;5.650;2022-09-09T11:25:51;11.35;;;5.15;;
44822;SDS011;51097;51.984;5.650;2022-09-09T11:34:21;8.75;;;4.63;;
44822;SDS011;51097;51.984;5.650;2022-09-09T11:39:50;11.93;;;4.88;;
44822;SDS011;51097;51.984;5.650;2022-09-09T11:42:33;12.50;;;4.45;;
44822;SDS011;51097;51.984;5.650;2022-09-09T11:45:08;7.82;;;4.63;;
44822;SDS011;51097;51.984;5.650;2022-09-09T11:47:36;7.95;;;3.08;;
44822;SDS011;51097;51.984;5.650;2022-09-09T11:52:40;5.53;;;2.58;;
44822;SDS011;51097;51.984;5.650;2022-09-09T12:00:42;7.18;;;2.67;;
44822;SDS011;51097;51.984;5.650;2022-09-09T12:05:59;6.10;;;2.40;;
44822;SDS011;51097;51.984;5.650;2022-09-09T12:08:39;7.57;;;2.88;;
44822;SDS011;51097;51.984;5.650;2022-09-09T12:11:08;7.32;;;2.72;;
44822;SDS011;51097;51.984;5.650;2022-09-09T12:13:33;5.00;;;3.03;;
44822;SDS011;51097;51.984;5.650;2022-09-09T12:16:00;5.53;;;2.20;;
44822;SDS011;51097;51.984;5.650;2022-09-09T12:18:34;7.93;;;3.20;;
44822;SDS011;51097;51.984;5.650;2022-09-09T12:24:00;9.27;;;2.83;;
44822;SDS011;51097;51.984;5.650;2022-09-09T12:26:41;4.20;;;2.30;;
44822;SDS011;51097;51.984;5.650;2022-09-09T12:29:18;5.55;;;2.60;;
44822;SDS011;51097;51.984;5.650;2022-09-09T12:31:50;5.70;;;2.30;;
44822;SDS011;51097;51.984;5.650;2022-09-09T12:39:55;5.47;;;2.90;;
44822;SDS011;51097;51.984;5.650;2022-09-09T12:42:43;10.18;;;3.50;;
44822;SDS011;51097;51.984;5.650;2022-09-09T12:45:16;6.20;;;2.60;;
44822;SDS011;51097;51.984;5.650;2022-09-09T12:47:54;9.70;;;4.00;;
44822;SDS011;51097;51.984;5.650;2022-09-09T12:52:50;7.50;;;2.25;;
44822;SDS011;51097;51.984;5.650;2022-09-09T12:55:31;7.30;;;3.85;;
44822;SDS011;51097;51.984;5.650;2022-09-09T12:58:00;5.75;;;2.72;;
44822;SDS011;51097;51.984;5.650;2022-09-09T13:00:30;5.85;;;2.38;;
44822;SDS011;51097;51.984;5.650;2022-09-09T13:02:57;4.85;;;2.40;;
44822;SDS011;51097;51.984;5.650;2022-09-09T13:05:27;4.28;;;2.75;;
44822;SDS011;51097;51.984;5.650;2022-09-09T13:08:05;8.07;;;2.25;;
44822;SDS011;51097;51.984;5.650;2022-09-09T13:10:35;10.18;;;4.20;;
44822;SDS011;51097;51.984;5.650;2022-09-09T13:13:15;3.72;;;2.90;;
44822;SDS011;51097;51.984;5.650;2022-09-09T13:15:52;7.20;;;1.85;;
44822;SDS011;51097;51.984;5.650;2022-09-09T13:18:22;9.05;;;2.58;;
44822;SDS011;51097;51.984;5.650;2022-09-09T13:20:49;6.40;;;2.05;;
44822;SDS011;51097;51.984;5.650;2022-09-09T13:23:16;5.82;;;3.53;;
44822;SDS011;51097;51.984;5.650;2022-09-09T13:25:54;6.30;;;2.90;;
44822;SDS011;51097;51.984;5.650;2022-09-09T13:31:02;3.60;;;2.08;;
44822;SDS011;51097;51.984;5.650;2022-09-09T13:33:38;9.55;;;2.50;;
44822;SDS011;51097;51.984;5.650;2022-09-09T13:36:05;5.03;;;2.40;;
44822;SDS011;51097;51.984;5.650;2022-09-09T13:38:55;7.03;;;3.58;;
44822;SDS011;51097;51.984;5.650;2022-09-09T13:44:02;2.35;;;1.92;;
44822;SDS011;51097;51.984;5.650;2022-09-09T13:51:40;4.70;;;1.95;;
44822;SDS011;51097;51.984;5.650;2022-09-09T13:54:11;5.68;;;1.88;;
44822;SDS011;51097;51.984;5.650;2022-09-09T13:56:38;6.03;;;2.28;;
44822;SDS011;51097;51.984;5.650;2022-09-09T13:59:06;6.50;;;2.70;;
44822;SDS011;51097;51.984;5.650;2022-09-09T14:01:37;4.90;;;2.55;;
44822;SDS011;51097;51.984;5.650;2022-09-09T14:04:03;5.95;;;1.80;;
44822;SDS011;51097;51.984;5.650;2022-09-09T14:06:31;5.95;;;1.73;;
44822;SDS011;51097;51.984;5.650;2022-09-09T14:08:57;5.95;;;1.65;;
44822;SDS011;51097;51.984;5.650;2022-09-09T14:11:23;3.53;;;1.83;;
44822;SDS011;51097;51.984;5.650;2022-09-09T14:13:49;4.95;;;2.15;;
44822;SDS011;51097;51.984;5.650;2022-09-09T14:16:15;4.43;;;1.98;;
44822;SDS011;51097;51.984;5.650;2022-09-09T14:18:42;4.13;;;2.03;;
44822;SDS011;51097;51.984;5.650;2022-09-09T14:21:08;3.90;;;2.05;;
44822;SDS011;51097;51.984;5.650;2022-09-09T14:23:34;4.50;;;1.88;;
44822;SDS011;51097;51.984;5.650;2022-09-09T14:26:00;4.40;;;1.98;;
44822;SDS011;51097;51.984;5.650;2022-09-09T14:28:26;4.18;;;1.90;;
44822;SDS011;51097;51.984;5.650;2022-09-09T14:30:53;6.60;;;1.92;;
44822;SDS011;51097;51.984;5.650;2022-09-09T14:33:18;5.47;;;2.33;;
44822;SDS011;51097;51.984;5.650;2022-09-09T14:35:44;4.82;;;1.77;;
44822;SDS011;51097;51.984;5.650;2022-09-09T14:38:09;5.95;;;2.05;;
44822;SDS011;51097;51.984;5.650;2022-09-09T14:40:35;8.02;;;2.80;;
44822;SDS011;51097;51.984;5.650;2022-09-09T14:43:02;5.82;;;2.25;;
44822;SDS011;51097;51.984;5.650;2022-09-09T14:45:29;4.25;;;1.70;;
44822;SDS011;51097;51.984;5.650;2022-09-09T14:47:55;4.40;;;2.00;;
44822;SDS011;51097;51.984;5.650;2022-09-09T14:50:21;4.75;;;1.90;;
44822;SDS011;51097;51.984;5.650;2022-09-09T14:52:47;4.82;;;2.00;;
44822;SDS011;51097;51.984;5.650;2022-09-09T14:55:14;4.50;;;1.98;;
44822;SDS011;51097;51.984;5.650;2022-09-09T14:57:40;3.15;;;1.88;;
44822;SDS011;51097;51.984;5.650;2022-09-09T15:00:06;5.80;;;2.20;;
44822;SDS011;51097;51.984;5.650;2022-09-09T15:02:33;5.65;;;2.38;;
44822;SDS011;51097;51.984;5.650;2022-09-09T15:04:59;8.75;;;3.08;;
44822;SDS011;51097;51.984;5.650;2022-09-09T15:07:25;7.47;;;3.13;;
44822;SDS011;51097;51.984;5.650;2022-09-09T15:09:52;12.85;;;3.88;;
44822;SDS011;51097;51.984;5.650;2022-09-09T15:12:18;8.23;;;3.20;;
44822;SDS011;51097;51.984;5.650;2022-09-09T15:14:44;7.07;;;3.60;;
44822;SDS011;51097;51.984;5.650;2022-09-09T15:17:10;8.02;;;3.08;;
44822;SDS011;51097;51.984;5.650;2022-09-09T15:19:36;5.40;;;3.22;;
44822;SDS011;51097;51.984;5.650;2022-09-09T15:22:02;7.35;;;3.92;;
44822;SDS011;51097;51.984;5.650;2022-09-09T15:24:30;9.57;;;3.72;;
44822;SDS011;51097;51.984;5.650;2022-09-09T15:26:56;3.63;;;2.83;;
44822;SDS011;51097;51.984;5.650;2022-09-09T15:29:22;8.65;;;5.00;;
44822;SDS011;51097;51.984;5.650;2022-09-09T15:31:48;7.78;;;3.88;;
44822;SDS011;51097;51.984;5.650;2022-09-09T15:34:14;5.82;;;2.78;;
44822;SDS011;51097;51.984;5.650;2022-09-09T15:36:41;5.05;;;2.85;;
44822;SDS011;51097;51.984;5.650;2022-09-09T15:39:09;5.10;;;3.20;;
44822;SDS011;51097;51.984;5.650;2022-09-09T15:41:40;10.75;;;3.97;;
44822;SDS011;51097;51.984;5.650;2022-09-09T15:44:07;5.00;;;3.00;;
44822;SDS011;51097;51.984;5.650;2022-09-09T15:46:36;6.40;;;3.08;;
44822;SDS011;51097;51.984;5.650;2022-09-09T15:52:01;6.60;;;2.92;;
44822;SDS011;51097;51.984;5.650;2022-09-09T15:54:28;5.20;;;3.03;;
44822;SDS011;51097;51.984;5.650;2022-09-09T15:56:59;4.87;;;2.23;;
44822;SDS011;51097;51.984;5.650;2022-09-09T15:59:26;6.85;;;3.72;;
44822;SDS011;51097;51.984;5.650;2022-09-09T16:01:53;6.00;;;2.40;;
44822;SDS011;51097;51.984;5.650;2022-09-09T16:04:20;4.10;;;1.92;;
44822;SDS011;51097;51.984;5.650;2022-09-09T16:09:20;2.05;;;1.73;;
44822;SDS011;51097;51.984;5.650;2022-09-09T16:11:46;3.00;;;2.22;;
44822;SDS011;51097;51.984;5.650;2022-09-09T16:14:12;3.38;;;1.90;;
44822;SDS011;51097;51.984;5.650;2022-09-09T16:16:38;5.35;;;1.48;;
44822;SDS011;51097;51.984;5.650;2022-09-09T16:19:05;3.20;;;1.50;;
44822;SDS011;51097;51.984;5.650;2022-09-09T16:21:36;3.20;;;1.70;;
44822;SDS011;51097;51.984;5.650;2022-09-09T16:24:05;3.70;;;2.05;;
44822;SDS011;51097;51.984;5.650;2022-09-09T16:26:32;5.57;;;2.03;;
44822;SDS011;51097;51.984;5.650;2022-09-09T16:29:00;3.10;;;1.67;;
44822;SDS011;51097;51.984;5.650;2022-09-09T16:31:26;3.28;;;2.15;;
44822;SDS011;51097;51.984;5.650;2022-09-09T16:33:53;3.70;;;2.53;;
44822;SDS011;51097;51.984;5.650;2022-09-09T16:36:23;4.82;;;2.20;;
44822;SDS011;51097;51.984;5.650;2022-09-09T16:38:54;7.32;;;2.50;;
44822;SDS011;51097;51.984;5.650;2022-09-09T16:41:21;3.63;;;2.78;;
44822;SDS011;51097;51.984;5.650;2022-09-09T16:43:51;12.60;;;4.82;;
44822;SDS011;51097;51.984;5.650;2022-09-09T16:46:20;4.88;;;2.58;;
44822;SDS011;51097;51.984;5.650;2022-09-09T16:48:46;6.07;;;2.20;;
44822;SDS011;51097;51.984;5.650;2022-09-09T16:51:17;4.45;;;2.95;;
44822;SDS011;51097;51.984;5.650;2022-09-09T16:53:48;5.35;;;2.20;;
44822;SDS011;51097;51.984;5.650;2022-09-09T16:56:15;3.35;;;2.25;;
44822;SDS011;51097;51.984;5.650;2022-09-09T16:58:43;3.08;;;2.42;;
44822;SDS011;51097;51.984;5.650;2022-09-09T17:01:24;3.35;;;2.28;;
44822;SDS011;51097;51.984;5.650;2022-09-09T17:03:52;5.50;;;2.88;;
44822;SDS011;51097;51.984;5.650;2022-09-09T17:06:19;4.82;;;2.78;;
44822;SDS011;51097;51.984;5.650;2022-09-09T17:08:44;4.85;;;3.30;;
44822;SDS011;51097;51.984;5.650;2022-09-09T17:11:13;3.42;;;2.50;;
44822;SDS011;51097;51.984;5.650;2022-09-09T17:13:45;8.07;;;3.00;;
44822;SDS011;51097;51.984;5.650;2022-09-09T17:16:11;5.00;;;3.30;;
44822;SDS011;51097;51.984;5.650;2022-09-09T17:18:38;3.85;;;3.30;;
44822;SDS011;51097;51.984;5.650;2022-09-09T17:21:05;4.93;;;2.90;;
44822;SDS011;51097;51.984;5.650;2022-09-09T17:23:33;5.65;;;3.22;;
44822;SDS011;51097;51.984;5.650;2022-09-09T17:26:02;4.25;;;3.08;;
44822;SDS011;51097;51.984;5.650;2022-09-09T17:28:29;5.32;;;3.25;;
44822;SDS011;51097;51.984;5.650;2022-09-09T17:30:56;3.00;;;2.72;;
44822;SDS011;51097;51.984;5.650;2022-09-09T17:33:25;4.55;;;3.35;;
44822;SDS011;51097;51.984;5.650;2022-09-09T17:35:52;5.30;;;3.63;;
44822;SDS011;51097;51.984;5.650;2022-09-09T17:38:18;6.07;;;3.63;;
44822;SDS011;51097;51.984;5.650;2022-09-09T17:40:43;5.32;;;3.50;;
44822;SDS011;51097;51.984;5.650;2022-09-09T17:43:09;5.88;;;3.25;;
44822;SDS011;51097;51.984;5.650;2022-09-09T17:45:34;7.43;;;3.85;;
44822;SDS011;51097;51.984;5.650;2022-09-09T17:48:00;4.65;;;4.13;;
44822;SDS011;51097;51.984;5.650;2022-09-09T17:50:25;6.35;;;3.70;;
44822;SDS011;51097;51.984;5.650;2022-09-09T17:52:51;3.70;;;3.28;;
44822;SDS011;51097;51.984;5.650;2022-09-09T17:55:17;4.90;;;3.58;;
44822;SDS011;51097;51.984;5.650;2022-09-09T17:57:42;5.85;;;3.78;;